Time;durP1;ratioP1;P1;durP2;ratioP2;P2;SDS_P1;SDS_P2;PMS_P1;PMS_P2;Temp;Humidity;BMP_temperature;BMP_pressure;BME280_temperature;BME280_humidity;BME280_pressure;Samples;Min_cycle;Max_cycle;Signal;HPM_P1;HPM_P2
2023/09/30 00:01:24;;;;;;;1.52;0.73;;;;;;;21.29;70.44;100742.09;5039342;28;20029;-48
2023/09/30 00:03:51;;;;;;;2.80;0.82;;;;;;;21.25;70.95;100739.09;5039225;28;20500;-46
2023/09/30 00:06:17;;;;;;;3.10;0.95;;;;;;;21.16;71.43;100734.53;5039157;28;20370;-48
2023/09/30 00:08:44;;;;;;;2.50;0.95;;;;;;;21.19;71.10;100740.22;5039108;28;20025;-47
2023/09/30 00:11:10;;;;;;;1.13;0.85;;;;;;;21.12;71.51;100733.44;5039103;28;20030;-49
2023/09/30 00:13:37;;;;;;;2.00;0.80;;;;;;;21.25;71.26;100744.53;5039112;28;20033;-49
2023/09/30 00:16:03;;;;;;;1.10;0.70;;;;;;;21.22;71.35;100730.69;5039044;28;20033;-50
2023/09/30 00:18:29;;;;;;;1.33;0.90;;;;;;;21.25;70.80;100725.47;5039461;28;20116;-46
2023/09/30 00:20:57;;;;;;;1.38;0.70;;;;;;;21.26;70.62;100729.81;5039047;28;20086;-49
2023/09/30 00:23:23;;;;;;;0.98;0.63;;;;;;;21.51;70.26;100730.84;5039085;28;20033;-49
2023/09/30 00:25:50;;;;;;;2.22;0.68;;;;;;;21.52;69.96;100735.19;5038901;28;20025;-46
2023/09/30 00:28:16;;;;;;;1.17;0.70;;;;;;;21.56;69.54;100737.06;5038989;28;20032;-47
2023/09/30 00:30:45;;;;;;;1.67;0.80;;;;;;;21.61;69.61;100725.31;5039066;28;20018;-49
2023/09/30 00:33:12;;;;;;;0.95;0.73;;;;;;;21.53;69.71;100729.44;5038925;28;20017;-47
2023/09/30 00:35:38;;;;;;;0.75;0.70;;;;;;;21.56;68.71;100725.34;5039183;28;20025;-50
2023/09/30 00:38:04;;;;;;;2.13;0.57;;;;;;;21.55;69.11;100721.00;5038607;28;20042;-51
2023/09/30 00:40:30;;;;;;;1.23;0.75;;;;;;;21.41;68.53;100728.16;5039057;28;20025;-51
2023/09/30 00:42:57;;;;;;;1.52;0.60;;;;;;;21.35;69.28;100728.19;5038917;28;20025;-47
2023/09/30 00:45:24;;;;;;;0.88;0.68;;;;;;;21.30;69.54;100730.94;5039068;28;20079;-48
2023/09/30 00:47:51;;;;;;;1.10;0.47;;;;;;;21.19;68.06;100734.78;5038821;28;20021;-47
2023/09/30 00:50:19;;;;;;;0.50;0.50;;;;;;;21.08;66.96;100728.56;5038879;28;20037;-46
2023/09/30 00:52:47;;;;;;;0.80;0.45;;;;;;;20.96;67.48;100725.34;5038679;28;20024;-47
2023/09/30 00:55:13;;;;;;;0.85;0.52;;;;;;;20.86;66.48;100722.66;5038519;28;20529;-47
2023/09/30 00:57:40;;;;;;;1.05;0.60;;;;;;;20.72;66.82;100727.88;5038758;28;20470;-50
2023/09/30 01:00:07;;;;;;;0.90;0.30;;;;;;;20.74;65.57;100717.53;5038640;28;20142;-49
2023/09/30 01:02:34;;;;;;;1.85;0.50;;;;;;;20.72;64.62;100708.84;5039036;28;20021;-50
2023/09/30 01:05:02;;;;;;;1.38;0.60;;;;;;;20.72;66.34;100718.91;5038651;28;20040;-50
2023/09/30 01:07:28;;;;;;;2.60;0.73;;;;;;;20.75;66.60;100719.16;5036821;28;20021;-50
2023/09/30 01:09:54;;;;;;;1.10;0.75;;;;;;;20.73;64.41;100712.38;5035351;28;20112;-49
2023/09/30 01:12:21;;;;;;;2.30;0.73;;;;;;;20.79;63.93;100716.69;5035456;28;20033;-50
2023/09/30 01:14:49;;;;;;;2.38;0.90;;;;;;;20.61;63.39;100717.31;5035595;28;20057;-48
2023/09/30 01:17:16;;;;;;;3.20;0.70;;;;;;;20.67;63.03;100708.84;5035611;28;20068;-46
2023/09/30 01:19:42;;;;;;;1.63;0.60;;;;;;;20.57;62.75;100711.59;5035655;28;20021;-48
2023/09/30 01:22:09;;;;;;;1.50;0.75;;;;;;;20.40;63.22;100716.50;5035280;28;20481;-49
2023/09/30 01:24:47;;;;;;;2.92;1.02;;;;;;;20.41;63.13;100712.69;5035895;28;20120;-50
2023/09/30 01:27:15;;;;;;;0.98;0.85;;;;;;;20.38;63.54;100710.53;5035558;28;20024;-50
2023/09/30 01:29:42;;;;;;;1.98;0.70;;;;;;;20.30;63.72;100709.16;5035200;28;20037;-50
2023/09/30 01:32:09;;;;;;;8.20;1.23;;;;;;;20.27;63.51;100702.38;5035366;28;20092;-47
2023/09/30 01:34:36;;;;;;;1.88;0.85;;;;;;;20.09;64.25;100705.63;5035316;28;20034;-50
2023/09/30 01:37:02;;;;;;;2.95;0.90;;;;;;;19.98;63.95;100695.84;5034946;28;20022;-49
2023/09/30 01:39:30;;;;;;;2.45;0.80;;;;;;;19.70;64.80;100708.88;5034837;28;20029;-47
2023/09/30 01:41:56;;;;;;;2.85;0.85;;;;;;;19.71;64.73;100699.66;5034921;28;20421;-49
2023/09/30 01:44:22;;;;;;;1.83;1.00;;;;;;;19.47;65.75;100698.50;5034887;28;20327;-50
2023/09/30 01:46:49;;;;;;;3.45;0.90;;;;;;;19.12;67.47;100694.63;5034700;28;20076;-49
2023/09/30 01:49:15;;;;;;;3.35;1.20;;;;;;;19.03;68.00;100707.06;5034749;28;20129;-49
2023/09/30 01:51:41;;;;;;;3.80;1.30;;;;;;;18.92;68.72;100708.91;5034770;28;20033;-49
2023/09/30 01:54:07;;;;;;;5.45;1.67;;;;;;;18.77;69.03;100703.44;5034803;28;20033;-50
2023/09/30 01:56:34;;;;;;;2.45;0.95;;;;;;;18.81;69.17;100706.41;5035046;28;20025;-45
2023/09/30 01:59:00;;;;;;;1.90;0.90;;;;;;;18.85;69.56;100702.09;5034741;28;20040;-45
2023/09/30 02:01:26;;;;;;;4.55;1.30;;;;;;;18.71;69.91;100697.16;5034645;28;20096;-49
2023/09/30 02:03:53;;;;;;;4.53;1.52;;;;;;;18.56;70.99;100704.38;5034680;28;20026;-46
2023/09/30 02:06:19;;;;;;;2.47;1.10;;;;;;;18.67;71.04;100695.22;5034622;28;20390;-49
2023/09/30 02:08:45;;;;;;;3.42;1.20;;;;;;;18.67;71.29;100687.06;5034461;28;20026;-49
2023/09/30 02:11:13;;;;;;;7.18;1.58;;;;;;;18.69;70.88;100698.50;5034819;28;20022;-47
2023/09/30 02:13:41;;;;;;;2.08;0.98;;;;;;;18.60;71.28;100700.88;5016644;28;20040;-46
2023/09/30 02:16:13;;;;;;;4.38;1.52;;;;;;;18.56;71.91;100701.66;5034249;28;20026;-46
2023/09/30 02:18:44;;;;;;;2.35;1.10;;;;;;;18.57;71.66;100701.38;5034175;28;20141;-47
2023/09/30 02:21:11;;;;;;;3.58;1.17;;;;;;;18.57;71.56;100698.66;5034194;28;20104;-46
2023/09/30 02:23:37;;;;;;;5.70;1.50;;;;;;;18.61;70.93;100699.78;5034193;28;20034;-48
2023/09/30 02:26:03;;;;;;;3.20;1.65;;;;;;;18.59;70.59;100693.78;5034526;28;20064;-46
2023/09/30 02:28:34;;;;;;;5.00;2.00;;;;;;;18.60;70.32;100692.75;5034099;28;20037;-49
2023/09/30 02:31:03;;;;;;;3.75;1.40;;;;;;;18.40;70.60;100690.72;5034214;28;20029;-46
2023/09/30 02:33:29;;;;;;;4.13;1.73;;;;;;;18.48;70.29;100689.38;5034169;28;20030;-47
2023/09/30 02:35:55;;;;;;;4.38;1.40;;;;;;;18.40;70.35;100689.91;5033955;28;20063;-47
2023/09/30 02:38:22;;;;;;;4.53;1.58;;;;;;;18.33;70.98;100686.59;5033618;28;20099;-47
2023/09/30 02:40:49;;;;;;;4.72;2.17;;;;;;;18.29;70.88;100683.59;5034640;28;20036;-48
2023/09/30 02:43:16;;;;;;;5.00;1.58;;;;;;;18.10;71.92;100680.50;5034600;28;20126;-47
2023/09/30 02:45:43;;;;;;;7.28;1.48;;;;;;;18.23;71.86;100687.34;5034192;28;20057;-48
2023/09/30 02:48:10;;;;;;;3.97;1.30;;;;;;;18.27;71.26;100690.38;5033645;28;20036;-48
2023/09/30 02:50:36;;;;;;;1.92;0.93;;;;;;;18.31;71.10;100689.56;5033595;28;20463;-45
2023/09/30 02:53:02;;;;;;;3.63;0.82;;;;;;;18.26;71.50;100677.88;5033745;28;20549;-47
2023/09/30 02:55:28;;;;;;;3.47;1.23;;;;;;;18.24;71.47;100680.03;5034045;28;20034;-45
2023/09/30 02:57:55;;;;;;;3.03;1.50;;;;;;;18.38;73.23;100686.66;5033617;28;20033;-43
2023/09/30 03:00:26;;;;;;;3.80;1.58;;;;;;;18.29;73.09;100682.78;5033526;28;20029;-44
2023/09/30 03:02:54;;;;;;;4.60;1.40;;;;;;;18.36;73.23;100686.88;5033522;28;20032;-44
2023/09/30 03:05:20;;;;;;;3.80;1.40;;;;;;;18.47;73.08;100685.06;5033535;28;20036;-45
2023/09/30 03:07:48;;;;;;;4.25;1.55;;;;;;;18.41;73.00;100691.53;5033542;28;20041;-45
2023/09/30 03:10:19;;;;;;;3.75;1.65;;;;;;;18.50;72.13;100692.69;5033246;28;20026;-45
2023/09/30 03:12:47;;;;;;;8.25;1.90;;;;;;;18.42;73.44;100685.03;5033763;28;20021;-46
2023/09/30 03:15:14;;;;;;;2.50;1.20;;;;;;;18.43;73.99;100684.78;5033353;28;20036;-49
2023/09/30 03:17:41;;;;;;;3.88;1.52;;;;;;;18.56;72.33;100694.34;5033268;28;20027;-48
2023/09/30 03:20:13;;;;;;;7.60;5.45;;;;;;;18.45;71.44;100689.94;5033113;28;20128;-45
2023/09/30 03:22:43;;;;;;;6.05;2.55;;;;;;;18.42;71.54;100685.03;5033185;28;20025;-46
2023/09/30 03:25:11;;;;;;;4.20;2.35;;;;;;;18.44;71.17;100682.88;5033061;28;20393;-45
2023/09/30 03:27:38;;;;;;;6.72;1.92;;;;;;;18.46;72.46;100683.44;5033079;28;20030;-47
2023/09/30 03:30:05;;;;;;;4.45;1.80;;;;;;;18.44;73.03;100686.41;5032974;28;20029;-49
2023/09/30 03:32:33;;;;;;;7.18;2.65;;;;;;;18.37;72.52;100690.41;5032221;28;20117;-47
2023/09/30 03:35:00;;;;;;;4.80;1.55;;;;;;;18.45;73.11;100692.66;5033481;28;20039;-46
2023/09/30 03:37:28;;;;;;;4.45;1.52;;;;;;;18.60;73.42;100692.75;5032767;28;20049;-48
2023/09/30 03:39:55;;;;;;;4.95;1.60;;;;;;;18.38;74.15;100692.06;5033275;28;20398;-46
2023/09/30 03:42:21;;;;;;;7.80;1.92;;;;;;;18.37;74.01;100690.41;5032894;28;20109;-48
2023/09/30 03:44:51;;;;;;;5.57;1.92;;;;;;;18.46;73.80;100688.84;5033138;28;20018;-46
2023/09/30 03:47:18;;;;;;;4.07;1.42;;;;;;;18.57;73.06;100695.16;5033103;28;20025;-50
2023/09/30 03:49:45;;;;;;;7.10;1.83;;;;;;;18.31;74.12;100692.28;5032823;28;20037;-47
2023/09/30 03:52:13;;;;;;;5.22;1.60;;;;;;;18.39;74.03;100690.97;5032863;28;20478;-44
2023/09/30 03:54:41;;;;;;;7.20;1.88;;;;;;;18.38;73.92;100692.06;5032778;28;20470;-45
2023/09/30 03:57:07;;;;;;;6.30;2.03;;;;;;;18.54;74.35;100687.53;5033143;28;20026;-45
2023/09/30 03:59:34;;;;;;;5.90;2.10;;;;;;;18.30;75.31;100692.53;5032970;28;20394;-48
2023/09/30 04:02:01;;;;;;;7.53;1.75;;;;;;;18.42;75.24;100685.03;5033119;28;20048;-45
2023/09/30 04:04:27;;;;;;;4.80;1.52;;;;;;;18.44;74.91;100691.00;5032615;28;20026;-44
2023/09/30 04:06:53;;;;;;;7.35;2.70;;;;;;;18.43;75.60;100694.78;5032493;28;20167;-45
2023/09/30 04:09:19;;;;;;;7.13;1.80;;;;;;;18.41;75.35;100694.22;5032296;28;20412;-45
2023/09/30 04:11:46;;;;;;;7.43;1.90;;;;;;;18.45;74.40;100692.66;5032269;28;20049;-45
2023/09/30 04:14:12;;;;;;;4.95;1.48;;;;;;;18.41;74.78;100686.09;5048280;28;20386;-46
2023/09/30 04:16:39;;;;;;;4.80;1.52;;;;;;;18.42;74.95;100693.16;5032590;28;20068;-45
2023/09/30 04:19:07;;;;;;;8.70;2.10;;;;;;;18.40;75.21;100687.19;5032343;28;20049;-50
2023/09/30 04:21:34;;;;;;;5.88;1.63;;;;;;;18.41;75.55;100688.81;5032684;28;20419;-50
2023/09/30 04:24:00;;;;;;;8.45;2.08;;;;;;;18.29;76.12;100678.19;5032250;28;20363;-49
2023/09/30 04:26:27;;;;;;;5.22;1.90;;;;;;;18.29;76.33;100688.19;5032239;28;20021;-47
2023/09/30 04:28:54;;;;;;;7.22;1.85;;;;;;;18.29;76.46;100682.78;5032353;28;20379;-50
2023/09/30 04:31:23;;;;;;;9.10;2.05;;;;;;;18.28;77.50;100684.69;5032311;28;20025;-49
2023/09/30 04:33:53;;;;;;;7.35;2.17;;;;;;;18.22;76.94;100676.78;5032723;28;20033;-49
2023/09/30 04:36:20;;;;;;;5.85;2.10;;;;;;;18.20;77.60;100674.31;5032333;28;20029;-48
2023/09/30 04:38:47;;;;;;;6.70;1.77;;;;;;;18.16;78.12;100674.03;5032280;28;20045;-47
2023/09/30 04:41:15;;;;;;;11.43;2.35;;;;;;;18.19;78.20;100672.69;5032651;28;20104;-49
2023/09/30 04:43:43;;;;;;;7.18;3.00;;;;;;;18.08;78.73;100681.81;5035009;28;20060;-50
2023/09/30 04:46:12;;;;;;;9.88;3.70;;;;;;;18.08;78.56;100665.56;5036141;28;20025;-49
2023/09/30 04:48:38;;;;;;;11.13;2.85;;;;;;;17.99;79.35;100659.81;5036691;28;20087;-47
2023/09/30 04:51:08;;;;;;;8.43;2.50;;;;;;;18.05;78.93;100666.91;5018353;28;20474;-46
2023/09/30 04:53:35;;;;;;;7.65;2.55;;;;;;;17.96;79.03;100667.66;5036051;28;20099;-49
2023/09/30 04:56:02;;;;;;;10.20;2.88;;;;;;;17.94;79.38;100670.63;5036143;28;20420;-47
2023/09/30 04:58:29;;;;;;;7.15;1.88;;;;;;;17.94;79.54;100668.72;5036176;28;20373;-46
2023/09/30 05:00:56;;;;;;;6.07;2.00;;;;;;;18.02;78.61;100664.72;5035960;28;20033;-49
2023/09/30 05:03:23;;;;;;;9.23;1.92;;;;;;;18.03;78.60;100671.75;5035865;28;20025;-46
2023/09/30 05:05:53;;;;;;;9.05;2.50;;;;;;;17.93;78.98;100658.13;5036084;28;20458;-48
2023/09/30 05:08:19;;;;;;;5.07;2.25;;;;;;;18.14;79.03;100665.34;5035685;28;20040;-50
2023/09/30 05:10:46;;;;;;;10.80;2.42;;;;;;;18.06;79.34;100663.13;5035999;28;20029;-49
2023/09/30 05:13:12;;;;;;;5.63;2.00;;;;;;;18.13;79.24;100666.41;5035670;28;20044;-49
2023/09/30 05:15:38;;;;;;;6.47;2.42;;;;;;;18.05;79.13;100663.38;5035486;28;20496;-48
2023/09/30 05:18:05;;;;;;;6.93;1.98;;;;;;;17.98;79.85;100666.28;5035469;28;20028;-49
2023/09/30 05:20:31;;;;;;;4.38;1.70;;;;;;;18.01;80.08;100663.09;5035416;28;20033;-46
2023/09/30 05:22:57;;;;;;;10.45;2.70;;;;;;;17.86;81.06;100657.53;5035639;28;20037;-49
2023/09/30 05:25:26;;;;;;;6.57;2.15;;;;;;;17.99;81.16;100658.97;5035708;28;20025;-49
2023/09/30 05:27:52;;;;;;;6.63;2.22;;;;;;;17.87;81.35;100659.97;5035215;28;20068;-50
2023/09/30 05:30:20;;;;;;;9.52;2.13;;;;;;;17.82;81.45;100659.97;5035151;28;20021;-47
2023/09/30 05:32:46;;;;;;;5.47;2.00;;;;;;;17.89;81.68;100659.75;5035319;28;20032;-48
2023/09/30 05:35:14;;;;;;;8.95;2.15;;;;;;;17.78;82.38;100666.16;5035453;28;20026;-47
2023/09/30 05:37:41;;;;;;;5.22;2.00;;;;;;;17.77;82.06;100659.13;5034777;28;20045;-45
2023/09/30 05:40:20;;;;;;;5.53;1.95;;;;;;;17.65;82.66;100660.03;5035007;28;20474;-46
2023/09/30 05:42:46;;;;;;;7.57;2.33;;;;;;;17.77;82.51;100664.53;5035257;28;20029;-46
2023/09/30 05:45:12;;;;;;;5.95;2.00;;;;;;;17.69;83.43;100661.16;5035146;28;20025;-48
2023/09/30 05:47:40;;;;;;;11.25;3.33;;;;;;;17.60;83.84;100664.59;5034774;28;20022;-46
2023/09/30 05:50:09;;;;;;;11.10;2.45;;;;;;;17.63;83.84;100669.50;5034814;28;20033;-45
2023/09/30 05:52:35;;;;;;;9.15;2.15;;;;;;;17.60;83.70;100670.00;5034859;28;20029;-45
2023/09/30 05:55:03;;;;;;;10.13;1.95;;;;;;;17.60;84.83;100670.00;5034275;28;20533;-49
2023/09/30 05:57:29;;;;;;;8.05;2.05;;;;;;;17.44;85.00;100674.47;5035051;28;20029;-45
2023/09/30 05:59:55;;;;;;;8.00;2.55;;;;;;;17.40;85.94;100681.47;5035026;28;20033;-45
2023/09/30 06:02:22;;;;;;;9.48;2.42;;;;;;;17.52;84.82;100674.00;5034528;28;20029;-46
2023/09/30 06:04:49;;;;;;;8.77;2.45;;;;;;;17.51;85.20;100677.78;5034547;28;20107;-46
2023/09/30 06:07:16;;;;;;;6.35;2.15;;;;;;;17.51;85.14;100674.25;5034622;28;20040;-44
2023/09/30 06:09:42;;;;;;;12.95;2.40;;;;;;;17.71;84.25;100679.03;5034420;28;20114;-48
2023/09/30 06:12:11;;;;;;;5.50;1.98;;;;;;;17.72;84.35;100680.69;5034462;28;20024;-46
2023/09/30 06:14:38;;;;;;;6.35;2.20;;;;;;;17.64;84.13;100682.78;5034240;28;20017;-45
2023/09/30 06:17:05;;;;;;;7.68;2.85;;;;;;;17.66;84.13;100685.25;5034858;28;20025;-45
2023/09/30 06:19:31;;;;;;;7.95;2.00;;;;;;;17.70;84.22;100675.50;5034386;28;20018;-47
2023/09/30 06:21:59;;;;;;;7.78;2.35;;;;;;;17.78;83.58;100666.97;5034148;28;20382;-47
2023/09/30 06:24:25;;;;;;;10.60;2.78;;;;;;;17.58;84.78;100667.56;5034134;28;20021;-47
2023/09/30 06:26:51;;;;;;;9.82;2.42;;;;;;;17.63;84.77;100678.44;5034580;28;20025;-48
2023/09/30 06:29:18;;;;;;;11.07;2.15;;;;;;;17.69;84.49;100672.00;5034885;28;20032;-46
2023/09/30 06:31:44;;;;;;;16.70;2.50;;;;;;;17.71;83.89;100673.63;5034873;28;20025;-45
2023/09/30 06:34:11;;;;;;;6.78;1.98;;;;;;;17.69;83.84;100666.56;5049710;28;20053;-45
2023/09/30 06:36:40;;;;;;;8.70;2.13;;;;;;;17.69;83.80;100677.41;5034425;28;20029;-45
2023/09/30 06:39:07;;;;;;;5.97;2.20;;;;;;;17.82;83.01;100664.53;5033633;28;20046;-46
2023/09/30 06:41:33;;;;;;;7.93;1.90;;;;;;;17.89;83.23;100657.84;5034174;28;20428;-48
2023/09/30 06:44:00;;;;;;;10.23;2.35;;;;;;;17.69;84.32;100650.34;5033970;28;20378;-45
2023/09/30 06:46:26;;;;;;;7.70;2.20;;;;;;;17.84;84.52;100649.69;5033760;28;20025;-45
2023/09/30 06:48:52;;;;;;;8.05;1.88;;;;;;;17.86;84.17;100654.84;5033776;28;20053;-45
2023/09/30 06:51:19;;;;;;;6.43;2.13;;;;;;;17.75;85.12;100662.06;5033575;28;20033;-46
2023/09/30 06:53:48;;;;;;;10.98;1.85;;;;;;;17.80;84.76;100661.28;5034056;28;20056;-45
2023/09/30 06:56:14;;;;;;;11.43;2.33;;;;;;;17.79;85.22;100662.38;5033823;28;20032;-46
2023/09/30 06:58:40;;;;;;;6.22;2.00;;;;;;;17.79;85.47;100662.38;5033682;28;20048;-47
2023/09/30 07:01:07;;;;;;;7.25;2.40;;;;;;;17.82;85.75;100664.53;5033337;28;20470;-46
2023/09/30 07:03:33;;;;;;;4.90;2.35;;;;;;;17.87;84.77;100657.28;5033506;28;20063;-49
2023/09/30 07:06:00;;;;;;;9.13;2.38;;;;;;;17.81;85.88;100660.19;5033283;28;20408;-45
2023/09/30 07:08:29;;;;;;;8.68;2.05;;;;;;;17.89;85.81;100662.44;5033191;28;20065;-45
2023/09/30 07:10:56;;;;;;;6.30;1.92;;;;;;;17.87;85.90;100654.56;5033203;28;20041;-45
2023/09/30 07:13:23;;;;;;;8.07;2.38;;;;;;;17.83;86.60;100641.84;5033236;28;20496;-46
2023/09/30 07:15:50;;;;;;;6.63;2.08;;;;;;;17.85;85.96;100647.78;5033138;28;20027;-47
2023/09/30 07:18:17;;;;;;;10.52;2.65;;;;;;;17.83;86.31;100644.53;5032987;28;20438;-46
2023/09/30 07:20:43;;;;;;;8.65;1.95;;;;;;;17.82;86.52;100637.47;5033069;28;20065;-45
2023/09/30 07:23:09;;;;;;;9.05;2.17;;;;;;;17.68;87.70;100634.34;5033107;28;20025;-46
2023/09/30 07:25:36;;;;;;;7.57;2.22;;;;;;;17.75;86.37;100639.59;5033028;28;20088;-46
2023/09/30 07:28:02;;;;;;;10.07;2.50;;;;;;;17.69;86.92;100631.38;5033073;28;20028;-44
2023/09/30 07:30:28;;;;;;;7.35;2.47;;;;;;;17.62;87.60;100629.97;5032735;28;20122;-44
2023/09/30 07:32:55;;;;;;;5.20;2.05;;;;;;;17.61;87.41;100634.59;5032974;28;20040;-45
2023/09/30 07:35:21;;;;;;;10.35;2.13;;;;;;;17.48;88.35;100636.88;5033184;28;20025;-50
2023/09/30 07:37:51;;;;;;;9.23;2.22;;;;;;;17.56;87.96;100637.25;5032836;28;20053;-46
2023/09/30 07:40:17;;;;;;;8.52;2.85;;;;;;;17.65;87.36;100638.38;5033093;28;20386;-45
2023/09/30 07:42:44;;;;;;;5.07;2.10;;;;;;;17.61;87.31;100634.59;5033820;28;20036;-44
2023/09/30 07:45:11;;;;;;;7.43;2.08;;;;;;;17.57;87.96;100638.06;5033319;28;20049;-44
2023/09/30 07:47:37;;;;;;;6.63;2.28;;;;;;;17.46;88.55;100639.84;5032899;28;20123;-45
2023/09/30 07:50:09;;;;;;;7.70;2.10;;;;;;;17.42;87.91;100630.59;5033192;28;20037;-45
2023/09/30 07:52:36;;;;;;;6.68;2.13;;;;;;;17.55;87.65;100634.78;5032783;28;20029;-44
2023/09/30 07:55:04;;;;;;;5.93;1.85;;;;;;;17.50;87.86;100637.47;5032770;28;20135;-46
2023/09/30 07:57:31;;;;;;;6.60;2.17;;;;;;;17.52;88.08;100625.28;5032745;28;20466;-45
2023/09/30 07:59:57;;;;;;;5.80;1.58;;;;;;;17.53;87.85;100631.50;5033077;28;20514;-46
2023/09/30 08:02:27;;;;;;;7.57;1.90;;;;;;;17.52;87.67;100622.59;5032944;28;20060;-47
2023/09/30 08:04:54;;;;;;;7.78;1.70;;;;;;;17.57;87.30;100622.63;5033418;28;20500;-45
2023/09/30 08:07:20;;;;;;;3.88;1.55;;;;;;;17.76;86.61;100622.25;5032680;28;20049;-46
2023/09/30 08:09:48;;;;;;;2.88;1.20;;;;;;;17.64;86.61;100623.22;5032587;28;20108;-45
2023/09/30 08:12:14;;;;;;;5.28;1.35;;;;;;;17.64;86.66;100625.13;5032574;28;20032;-46
2023/09/30 08:14:40;;;;;;;3.35;1.52;;;;;;;17.69;86.63;100619.75;5032533;28;20083;-45
2023/09/30 08:17:07;;;;;;;4.47;1.30;;;;;;;17.64;87.09;100620.50;5032893;28;20546;-48
2023/09/30 08:19:33;;;;;;;6.47;1.40;;;;;;;17.61;87.46;100620.22;5036895;28;20021;-46
2023/09/30 08:21:59;;;;;;;4.05;1.30;;;;;;;17.55;87.89;100629.38;5037000;28;20108;-48
2023/09/30 08:24:25;;;;;;;6.18;1.23;;;;;;;17.45;88.82;100621.97;5036156;28;20036;-47
2023/09/30 08:26:52;;;;;;;3.80;1.30;;;;;;;17.52;89.13;100619.88;5036222;28;20021;-45
2023/09/30 08:29:18;;;;;;;5.95;1.80;;;;;;;17.59;89.34;100615.06;5036218;28;20025;-45
2023/09/30 08:31:44;;;;;;;7.32;1.30;;;;;;;17.52;90.59;100614.47;5036694;28;20032;-46
2023/09/30 08:34:11;;;;;;;4.57;1.20;;;;;;;17.53;91.27;100616.09;5036708;28;20463;-44
2023/09/30 08:36:37;;;;;;;5.95;1.35;;;;;;;17.60;90.65;100618.56;5036325;28;20576;-45
2023/09/30 08:39:04;;;;;;;1.80;0.68;;;;;;;17.50;91.45;100615.81;5036176;28;20053;-44
2023/09/30 08:41:34;;;;;;;2.15;0.60;;;;;;;17.56;92.06;100623.72;5036075;28;20037;-45
2023/09/30 08:44:02;;;;;;;3.50;0.68;;;;;;;17.63;90.86;100628.91;5036189;28;20021;-46
2023/09/30 08:46:34;;;;;;;1.63;0.82;;;;;;;17.51;92.03;100636.38;5036306;28;20025;-45
2023/09/30 08:49:05;;;;;;;2.00;0.70;;;;;;;17.57;91.16;100633.47;5036138;28;20444;-45
2023/09/30 08:51:32;;;;;;;3.90;0.85;;;;;;;17.57;91.41;100640.75;5036096;28;20076;-44
2023/09/30 08:54:01;;;;;;;0.88;0.57;;;;;;;17.52;92.13;100636.13;5036175;28;20295;-44
2023/09/30 08:56:29;;;;;;;0.77;0.50;;;;;;;17.57;91.74;100633.47;5051488;28;20390;-44
2023/09/30 08:59:00;;;;;;;1.55;0.60;;;;;;;17.47;91.68;100636.06;5036019;28;20025;-47
2023/09/30 09:01:27;;;;;;;0.80;0.40;;;;;;;17.51;90.44;100631.78;5036033;28;20390;-45
2023/09/30 09:03:55;;;;;;;1.35;0.50;;;;;;;17.49;89.63;100630.38;5036367;28;20029;-49
2023/09/30 09:06:22;;;;;;;0.90;0.40;;;;;;;17.49;88.71;100625.81;5035924;28;20051;-47
2023/09/30 09:08:48;;;;;;;1.17;0.40;;;;;;;17.30;89.25;100621.84;5035695;28;20061;-45
2023/09/30 09:11:15;;;;;;;0.52;0.35;;;;;;;17.26;89.48;100621.53;5035960;28;20017;-45
2023/09/30 09:13:53;;;;;;;0.30;0.30;;;;;;;17.36;87.56;100620.81;5035728;28;20044;-45
2023/09/30 09:16:19;;;;;;;0.63;0.40;;;;;;;17.07;87.54;100618.38;5035817;28;20026;-46
2023/09/30 09:18:48;;;;;;;0.82;0.28;;;;;;;17.11;87.39;100619.50;5036029;28;20037;-45
2023/09/30 09:21:20;;;;;;;1.02;0.38;;;;;;;16.84;88.93;100624.06;5036043;28;20112;-45
2023/09/30 09:23:48;;;;;;;0.93;0.50;;;;;;;16.87;88.36;100620.84;5035915;28;20041;-46
2023/09/30 09:26:26;;;;;;;1.20;0.70;;;;;;;16.73;89.04;100627.72;5035509;28;20037;-47
2023/09/30 09:29:00;;;;;;;1.58;0.90;;;;;;;16.77;88.55;100626.97;5034103;28;20033;-50
2023/09/30 09:31:29;;;;;;;2.38;0.88;;;;;;;16.62;88.64;100622.13;5035563;28;20037;-45
2023/09/30 09:33:55;;;;;;;2.55;1.35;;;;;;;16.45;89.23;100629.50;5035428;28;20025;-46
2023/09/30 09:36:37;;;;;;;3.28;1.10;;;;;;;16.55;88.18;100629.63;5035464;28;20029;-43
2023/09/30 09:39:04;;;;;;;0.98;0.80;;;;;;;16.50;88.30;100624.16;5035193;28;20129;-45
2023/09/30 09:41:30;;;;;;;2.20;0.90;;;;;;;16.44;88.85;100622.44;5035724;28;20033;-45
2023/09/30 09:44:00;;;;;;;1.90;0.93;;;;;;;16.33;88.54;100617.97;5035104;28;20034;-46
2023/09/30 09:46:29;;;;;;;4.07;1.02;;;;;;;16.15;85.81;100615.53;5035231;28;20074;-46
2023/09/30 09:48:57;;;;;;;2.40;1.17;;;;;;;16.09;86.30;100622.75;5034880;28;20442;-45
2023/09/30 09:51:24;;;;;;;2.72;1.20;;;;;;;16.00;86.78;100608.88;5034908;28;20410;-45
2023/09/30 09:53:51;;;;;;;1.98;1.15;;;;;;;16.08;86.14;100608.44;5035199;28;20026;-46
2023/09/30 09:56:20;;;;;;;3.40;1.08;;;;;;;16.07;86.36;100606.81;5035037;28;20113;-50
2023/09/30 09:58:48;;;;;;;2.55;1.00;;;;;;;16.05;86.30;100610.84;5034976;28;20022;-44
2023/09/30 10:01:15;;;;;;;4.82;0.90;;;;;;;16.12;86.32;100603.38;5017202;28;20021;-44
2023/09/30 10:03:42;;;;;;;3.28;1.00;;;;;;;16.12;85.98;100600.66;5034956;28;20474;-47
2023/09/30 10:06:09;;;;;;;5.43;1.15;;;;;;;16.09;84.39;100614.66;5034719;28;20449;-44
2023/09/30 10:08:44;;;;;;;1.35;0.85;;;;;;;16.15;83.02;100604.75;5034663;28;20088;-48
2023/09/30 10:11:18;;;;;;;1.40;0.73;;;;;;;16.05;83.05;100600.84;5034815;28;20026;-45
2023/09/30 10:14:00;;;;;;;1.90;0.77;;;;;;;16.17;82.76;100595.34;5034467;28;20029;-48
2023/09/30 10:16:50;;;;;;;2.05;0.75;;;;;;;15.97;83.18;100586.94;5034472;28;20366;-47
2023/09/30 10:19:24;;;;;;;1.75;0.80;;;;;;;15.99;83.32;100591.03;5031599;28;20176;-48
2023/09/30 10:22:27;;;;;;;1.92;0.60;;;;;;;15.88;83.77;100572.22;5034462;28;20143;-48
2023/09/30 10:24:56;;;;;;;2.80;0.88;;;;;;;16.04;83.01;100579.47;5034468;28;20033;-46
2023/09/30 10:27:23;;;;;;;2.22;0.82;;;;;;;15.83;84.18;100578.38;5034620;28;20022;-45
2023/09/30 10:30:00;;;;;;;1.98;0.90;;;;;;;15.84;83.91;100575.44;5034072;28;20065;-46
2023/09/30 10:32:50;;;;;;;3.53;0.98;;;;;;;15.90;84.13;100568.22;5034753;28;20030;-46
2023/09/30 10:35:20;;;;;;;1.88;0.60;;;;;;;15.86;83.97;100575.19;5033859;28;20115;-47
2023/09/30 10:37:48;;;;;;;1.20;0.77;;;;;;;15.88;84.38;100575.78;5034111;28;20422;-48
2023/09/30 10:40:33;;;;;;;1.75;0.65;;;;;;;15.94;83.96;100582.06;5033572;28;20025;-44
2023/09/30 10:43:02;;;;;;;3.30;0.80;;;;;;;15.81;84.50;100578.63;5033885;28;20075;-44
2023/09/30 10:45:46;;;;;;;0.55;0.47;;;;;;;15.93;84.65;100578.50;5033630;28;20067;-44
2023/09/30 10:48:31;;;;;;;1.67;0.82;;;;;;;16.09;84.23;100582.25;5033885;28;20029;-44
2023/09/30 10:51:02;;;;;;;3.42;0.95;;;;;;;16.07;83.61;100577.09;5033857;28;20041;-45
2023/09/30 10:53:29;;;;;;;2.40;0.90;;;;;;;16.10;83.40;100579.31;5033763;28;20021;-45
2023/09/30 10:55:59;;;;;;;1.88;0.80;;;;;;;16.01;83.68;100582.69;5034119;28;20060;-49
2023/09/30 10:58:45;;;;;;;1.77;0.70;;;;;;;15.98;83.62;100581.28;5033593;28;20021;-46
2023/09/30 11:01:13;;;;;;;1.67;0.75;;;;;;;15.98;83.53;100575.88;5034023;28;20061;-46
2023/09/30 11:03:41;;;;;;;1.10;0.63;;;;;;;16.02;83.47;100579.72;5034035;28;20025;-45
2023/09/30 11:06:07;;;;;;;1.65;0.63;;;;;;;15.92;83.62;100579.59;5033217;28;20060;-46
2023/09/30 11:08:35;;;;;;;1.15;0.77;;;;;;;15.80;84.22;100576.97;5033194;28;20386;-45
2023/09/30 11:11:02;;;;;;;1.58;0.63;;;;;;;15.75;84.64;100574.19;5033101;28;20378;-45
2023/09/30 11:13:36;;;;;;;2.70;0.70;;;;;;;15.64;85.21;100577.00;5033353;28;20409;-45
2023/09/30 11:16:08;;;;;;;2.58;0.70;;;;;;;15.77;85.01;100577.50;5033270;28;20485;-50
2023/09/30 11:18:35;;;;;;;2.22;0.88;;;;;;;15.49;86.17;100581.06;5033208;28;20092;-46
2023/09/30 11:21:10;;;;;;;1.20;0.70;;;;;;;15.47;86.46;100585.88;5033297;28;20478;-47
2023/09/30 11:23:37;;;;;;;1.25;0.52;;;;;;;15.36;86.76;100588.63;5033270;28;20041;-47
2023/09/30 11:26:05;;;;;;;1.92;0.60;;;;;;;15.39;86.67;100591.69;5033061;28;20121;-47
2023/09/30 11:28:42;;;;;;;1.52;0.70;;;;;;;15.27;87.39;100594.44;5032955;28;20104;-45